sensor_id;sensor_type;location;lat;lon;timestamp;P1;durP1;ratioP1;P2;durP2;ratioP2
76900;SDS011;65859;43.020;25.096;2023-05-10T00:00:08;14.23;;;11.00;;
76900;SDS011;65859;43.020;25.096;2023-05-10T00:02:36;16.48;;;10.70;;
76900;SDS011;65859;43.020;25.096;2023-05-10T00:05:04;10.90;;;9.70;;
76900;SDS011;65859;43.020;25.096;2023-05-10T00:07:30;14.32;;;10.45;;
76900;SDS011;65859;43.020;25.096;2023-05-10T00:09:57;14.52;;;11.40;;
76900;SDS011;65859;43.020;25.096;2023-05-10T00:12:23;13.68;;;9.80;;
76900;SDS011;65859;43.020;25.096;2023-05-10T00:14:49;11.27;;;9.43;;
76900;SDS011;65859;43.020;25.096;2023-05-10T00:17:15;12.40;;;10.18;;
76900;SDS011;65859;43.020;25.096;2023-05-10T00:19:42;12.57;;;10.60;;
76900;SDS011;65859;43.020;25.096;2023-05-10T00:22:08;14.00;;;11.45;;
76900;SDS011;65859;43.020;25.096;2023-05-10T00:24:35;14.27;;;10.65;;
76900;SDS011;65859;43.020;25.096;2023-05-10T00:27:01;11.07;;;9.88;;
76900;SDS011;65859;43.020;25.096;2023-05-10T00:29:29;10.98;;;9.80;;
76900;SDS011;65859;43.020;25.096;2023-05-10T00:31:56;12.07;;;10.05;;
76900;SDS011;65859;43.020;25.096;2023-05-10T00:34:23;13.20;;;10.40;;
76900;SDS011;65859;43.020;25.096;2023-05-10T00:36:51;12.95;;;10.15;;
76900;SDS011;65859;43.020;25.096;2023-05-10T00:39:17;14.18;;;10.27;;
76900;SDS011;65859;43.020;25.096;2023-05-10T00:41:43;15.32;;;10.48;;
76900;SDS011;65859;43.020;25.096;2023-05-10T00:44:10;13.13;;;10.40;;
76900;SDS011;65859;43.020;25.096;2023-05-10T00:46:36;13.55;;;11.82;;
76900;SDS011;65859;43.020;25.096;2023-05-10T00:49:02;13.93;;;10.10;;
76900;SDS011;65859;43.020;25.096;2023-05-10T00:51:29;13.32;;;10.65;;
76900;SDS011;65859;43.020;25.096;2023-05-10T00:53:56;13.88;;;10.98;;
76900;SDS011;65859;43.020;25.096;2023-05-10T00:56:23;17.77;;;10.02;;
76900;SDS011;65859;43.020;25.096;2023-05-10T00:58:50;14.20;;;10.80;;
76900;SDS011;65859;43.020;25.096;2023-05-10T01:01:17;14.20;;;10.43;;
76900;SDS011;65859;43.020;25.096;2023-05-10T01:03:44;14.88;;;11.32;;
76900;SDS011;65859;43.020;25.096;2023-05-10T01:06:10;14.90;;;10.75;;
76900;SDS011;65859;43.020;25.096;2023-05-10T01:08:40;12.38;;;10.52;;
76900;SDS011;65859;43.020;25.096;2023-05-10T01:11:07;15.48;;;11.43;;
76900;SDS011;65859;43.020;25.096;2023-05-10T01:13:34;17.92;;;11.75;;
76900;SDS011;65859;43.020;25.096;2023-05-10T01:16:03;14.07;;;11.88;;
76900;SDS011;65859;43.020;25.096;2023-05-10T01:18:32;13.38;;;10.77;;
76900;SDS011;65859;43.020;25.096;2023-05-10T01:21:13;13.95;;;10.98;;
76900;SDS011;65859;43.020;25.096;2023-05-10T01:23:44;17.05;;;11.27;;
76900;SDS011;65859;43.020;25.096;2023-05-10T01:34:27;14.10;;;11.18;;
76900;SDS011;65859;43.020;25.096;2023-05-10T01:37:09;14.55;;;10.73;;
76900;SDS011;65859;43.020;25.096;2023-05-10T01:39:45;13.38;;;9.82;;
76900;SDS011;65859;43.020;25.096;2023-05-10T01:42:17;13.07;;;10.20;;
76900;SDS011;65859;43.020;25.096;2023-05-10T01:47:16;12.57;;;10.13;;
76900;SDS011;65859;43.020;25.096;2023-05-10T01:49:54;12.18;;;9.68;;
76900;SDS011;65859;43.020;25.096;2023-05-10T01:52:25;11.77;;;9.23;;
76900;SDS011;65859;43.020;25.096;2023-05-10T01:55:02;17.17;;;8.25;;
76900;SDS011;65859;43.020;25.096;2023-05-10T01:57:42;13.07;;;9.20;;
76900;SDS011;65859;43.020;25.096;2023-05-10T02:00:11;15.20;;;7.82;;
76900;SDS011;65859;43.020;25.096;2023-05-10T02:02:40;10.60;;;8.73;;
76900;SDS011;65859;43.020;25.096;2023-05-10T02:05:10;11.48;;;8.27;;
76900;SDS011;65859;43.020;25.096;2023-05-10T02:07:38;15.77;;;8.35;;
76900;SDS011;65859;43.020;25.096;2023-05-10T02:10:07;13.95;;;8.73;;
76900;SDS011;65859;43.020;25.096;2023-05-10T02:12:36;13.70;;;8.73;;
76900;SDS011;65859;43.020;25.096;2023-05-10T02:15:11;9.32;;;7.95;;
76900;SDS011;65859;43.020;25.096;2023-05-10T02:17:42;12.27;;;7.97;;
76900;SDS011;65859;43.020;25.096;2023-05-10T02:20:11;8.75;;;7.15;;
76900;SDS011;65859;43.020;25.096;2023-05-10T02:22:39;10.02;;;7.40;;
76900;SDS011;65859;43.020;25.096;2023-05-10T02:25:07;11.50;;;8.50;;
76900;SDS011;65859;43.020;25.096;2023-05-10T02:27:36;9.88;;;7.03;;
76900;SDS011;65859;43.020;25.096;2023-05-10T02:30:04;9.95;;;7.70;;
76900;SDS011;65859;43.020;25.096;2023-05-10T02:32:31;7.72;;;6.28;;
76900;SDS011;65859;43.020;25.096;2023-05-10T02:34:59;10.30;;;6.40;;
76900;SDS011;65859;43.020;25.096;2023-05-10T02:37:28;8.25;;;6.40;;
76900;SDS011;65859;43.020;25.096;2023-05-10T02:39:55;8.25;;;6.40;;
76900;SDS011;65859;43.020;25.096;2023-05-10T02:42:24;8.52;;;6.53;;
76900;SDS011;65859;43.020;25.096;2023-05-10T02:44:53;9.27;;;5.88;;
76900;SDS011;65859;43.020;25.096;2023-05-10T02:47:24;13.88;;;6.30;;
76900;SDS011;65859;43.020;25.096;2023-05-10T02:49:50;7.70;;;5.45;;
76900;SDS011;65859;43.020;25.096;2023-05-10T02:52:19;10.20;;;5.85;;
76900;SDS011;65859;43.020;25.096;2023-05-10T02:54:50;7.65;;;6.38;;
76900;SDS011;65859;43.020;25.096;2023-05-10T02:57:21;8.52;;;5.70;;
76900;SDS011;65859;43.020;25.096;2023-05-10T02:59:51;13.30;;;5.65;;
76900;SDS011;65859;43.020;25.096;2023-05-10T03:02:18;8.18;;;6.15;;
76900;SDS011;65859;43.020;25.096;2023-05-10T03:04:45;10.18;;;5.90;;
76900;SDS011;65859;43.020;25.096;2023-05-10T03:07:11;8.27;;;6.68;;
76900;SDS011;65859;43.020;25.096;2023-05-10T03:09:38;9.77;;;5.72;;
76900;SDS011;65859;43.020;25.096;2023-05-10T03:12:13;7.10;;;6.05;;
76900;SDS011;65859;43.020;25.096;2023-05-10T03:20:24;8.20;;;6.05;;
76900;SDS011;65859;43.020;25.096;2023-05-10T03:23:00;9.15;;;5.85;;
76900;SDS011;65859;43.020;25.096;2023-05-10T03:25:31;10.07;;;5.90;;
76900;SDS011;65859;43.020;25.096;2023-05-10T03:27:58;10.05;;;5.78;;
76900;SDS011;65859;43.020;25.096;2023-05-10T03:30:28;7.88;;;6.00;;
76900;SDS011;65859;43.020;25.096;2023-05-10T03:32:55;11.20;;;6.53;;
76900;SDS011;65859;43.020;25.096;2023-05-10T03:35:22;9.57;;;6.22;;
76900;SDS011;65859;43.020;25.096;2023-05-10T03:37:49;8.15;;;5.85;;
76900;SDS011;65859;43.020;25.096;2023-05-10T03:40:15;8.63;;;6.20;;
76900;SDS011;65859;43.020;25.096;2023-05-10T03:42:42;23.35;;;6.70;;
76900;SDS011;65859;43.020;25.096;2023-05-10T03:45:08;13.23;;;5.50;;
76900;SDS011;65859;43.020;25.096;2023-05-10T03:47:35;10.15;;;6.00;;
76900;SDS011;65859;43.020;25.096;2023-05-10T03:50:01;8.65;;;5.68;;
76900;SDS011;65859;43.020;25.096;2023-05-10T03:52:28;9.52;;;5.78;;
76900;SDS011;65859;43.020;25.096;2023-05-10T03:54:54;12.10;;;5.63;;
76900;SDS011;65859;43.020;25.096;2023-05-10T03:57:20;10.10;;;6.03;;
76900;SDS011;65859;43.020;25.096;2023-05-10T03:59:47;9.57;;;5.60;;
76900;SDS011;65859;43.020;25.096;2023-05-10T04:02:14;8.65;;;5.32;;
76900;SDS011;65859;43.020;25.096;2023-05-10T04:04:41;11.00;;;6.05;;
76900;SDS011;65859;43.020;25.096;2023-05-10T04:07:07;6.72;;;5.28;;
76900;SDS011;65859;43.020;25.096;2023-05-10T04:09:35;6.68;;;4.78;;
76900;SDS011;65859;43.020;25.096;2023-05-10T04:12:01;8.00;;;5.85;;
76900;SDS011;65859;43.020;25.096;2023-05-10T04:14:28;12.05;;;5.70;;
76900;SDS011;65859;43.020;25.096;2023-05-10T04:16:54;8.88;;;4.82;;
76900;SDS011;65859;43.020;25.096;2023-05-10T04:19:21;11.13;;;5.82;;
76900;SDS011;65859;43.020;25.096;2023-05-10T04:21:47;9.90;;;5.85;;
76900;SDS011;65859;43.020;25.096;2023-05-10T04:24:13;8.73;;;5.30;;
76900;SDS011;65859;43.020;25.096;2023-05-10T04:26:40;9.55;;;5.45;;
76900;SDS011;65859;43.020;25.096;2023-05-10T04:29:06;6.80;;;5.40;;
76900;SDS011;65859;43.020;25.096;2023-05-10T04:31:33;8.48;;;5.00;;
76900;SDS011;65859;43.020;25.096;2023-05-10T04:34:02;6.03;;;4.85;;
76900;SDS011;65859;43.020;25.096;2023-05-10T04:36:29;7.43;;;5.13;;
76900;SDS011;65859;43.020;25.096;2023-05-10T04:38:55;9.23;;;5.18;;
76900;SDS011;65859;43.020;25.096;2023-05-10T04:41:21;8.63;;;5.63;;
76900;SDS011;65859;43.020;25.096;2023-05-10T04:43:48;11.48;;;5.97;;
76900;SDS011;65859;43.020;25.096;2023-05-10T04:46:14;8.95;;;5.30;;
76900;SDS011;65859;43.020;25.096;2023-05-10T04:48:40;7.95;;;5.45;;
76900;SDS011;65859;43.020;25.096;2023-05-10T04:51:07;8.85;;;5.40;;
76900;SDS011;65859;43.020;25.096;2023-05-10T04:53:33;9.85;;;5.32;;
76900;SDS011;65859;43.020;25.096;2023-05-10T04:55:59;12.68;;;5.45;;
76900;SDS011;65859;43.020;25.096;2023-05-10T04:58:26;7.13;;;5.22;;
76900;SDS011;65859;43.020;25.096;2023-05-10T05:00:52;7.55;;;5.30;;
76900;SDS011;65859;43.020;25.096;2023-05-10T05:03:18;6.97;;;4.70;;
76900;SDS011;65859;43.020;25.096;2023-05-10T05:05:46;6.93;;;4.95;;
76900;SDS011;65859;43.020;25.096;2023-05-10T05:08:12;9.25;;;4.80;;
76900;SDS011;65859;43.020;25.096;2023-05-10T05:10:39;7.82;;;5.45;;
76900;SDS011;65859;43.020;25.096;2023-05-10T05:13:05;7.50;;;4.95;;
76900;SDS011;65859;43.020;25.096;2023-05-10T05:15:32;10.18;;;4.80;;
76900;SDS011;65859;43.020;25.096;2023-05-10T05:17:58;7.10;;;4.50;;
76900;SDS011;65859;43.020;25.096;2023-05-10T05:20:24;9.75;;;4.47;;
76900;SDS011;65859;43.020;25.096;2023-05-10T05:22:51;7.43;;;4.15;;
76900;SDS011;65859;43.020;25.096;2023-05-10T05:25:17;5.90;;;3.85;;
76900;SDS011;65859;43.020;25.096;2023-05-10T05:28:04;6.32;;;3.90;;
76900;SDS011;65859;43.020;25.096;2023-05-10T05:30:31;5.22;;;3.97;;
76900;SDS011;65859;43.020;25.096;2023-05-10T05:32:57;4.80;;;3.97;;
76900;SDS011;65859;43.020;25.096;2023-05-10T05:35:23;4.88;;;4.25;;
76900;SDS011;65859;43.020;25.096;2023-05-10T05:37:51;6.13;;;4.13;;
76900;SDS011;65859;43.020;25.096;2023-05-10T05:40:17;6.53;;;3.65;;
76900;SDS011;65859;43.020;25.096;2023-05-10T05:42:45;8.55;;;4.00;;
76900;SDS011;65859;43.020;25.096;2023-05-10T05:45:11;5.78;;;3.63;;
76900;SDS011;65859;43.020;25.096;2023-05-10T05:47:38;7.53;;;4.28;;
76900;SDS011;65859;43.020;25.096;2023-05-10T05:50:05;5.10;;;3.65;;
76900;SDS011;65859;43.020;25.096;2023-05-10T05:52:32;7.82;;;4.40;;
76900;SDS011;65859;43.020;25.096;2023-05-10T05:54:58;6.22;;;4.22;;
76900;SDS011;65859;43.020;25.096;2023-05-10T05:57:25;4.97;;;3.47;;
76900;SDS011;65859;43.020;25.096;2023-05-10T05:59:51;9.85;;;7.50;;
76900;SDS011;65859;43.020;25.096;2023-05-10T06:02:18;5.22;;;3.28;;
76900;SDS011;65859;43.020;25.096;2023-05-10T06:04:44;4.55;;;3.38;;
76900;SDS011;65859;43.020;25.096;2023-05-10T06:07:11;6.53;;;3.95;;
76900;SDS011;65859;43.020;25.096;2023-05-10T06:09:39;5.00;;;3.50;;
76900;SDS011;65859;43.020;25.096;2023-05-10T06:12:05;4.72;;;3.80;;
76900;SDS011;65859;43.020;25.096;2023-05-10T06:14:32;6.68;;;3.70;;
76900;SDS011;65859;43.020;25.096;2023-05-10T06:16:58;8.13;;;3.97;;
76900;SDS011;65859;43.020;25.096;2023-05-10T06:19:25;7.45;;;3.53;;
76900;SDS011;65859;43.020;25.096;2023-05-10T06:21:51;6.18;;;4.10;;
76900;SDS011;65859;43.020;25.096;2023-05-10T06:24:18;7.40;;;3.78;;
76900;SDS011;65859;43.020;25.096;2023-05-10T06:26:44;5.28;;;3.78;;
76900;SDS011;65859;43.020;25.096;2023-05-10T06:29:10;5.50;;;3.30;;
76900;SDS011;65859;43.020;25.096;2023-05-10T06:31:37;5.65;;;3.58;;
76900;SDS011;65859;43.020;25.096;2023-05-10T06:34:03;6.82;;;4.30;;
76900;SDS011;65859;43.020;25.096;2023-05-10T06:36:29;6.28;;;3.90;;
76900;SDS011;65859;43.020;25.096;2023-05-10T06:38:56;5.80;;;3.70;;
76900;SDS011;65859;43.020;25.096;2023-05-10T06:41:23;8.63;;;4.57;;
76900;SDS011;65859;43.020;25.096;2023-05-10T06:43:50;9.82;;;4.40;;
76900;SDS011;65859;43.020;25.096;2023-05-10T06:46:16;5.68;;;3.78;;
76900;SDS011;65859;43.020;25.096;2023-05-10T06:48:42;6.10;;;3.75;;
76900;SDS011;65859;43.020;25.096;2023-05-10T06:51:09;5.70;;;3.47;;
76900;SDS011;65859;43.020;25.096;2023-05-10T06:53:36;4.47;;;3.83;;
76900;SDS011;65859;43.020;25.096;2023-05-10T06:56:02;7.25;;;3.67;;
76900;SDS011;65859;43.020;25.096;2023-05-10T06:58:28;6.60;;;3.90;;
76900;SDS011;65859;43.020;25.096;2023-05-10T07:01:01;6.57;;;3.80;;
76900;SDS011;65859;43.020;25.096;2023-05-10T07:03:28;5.13;;;3.65;;
76900;SDS011;65859;43.020;25.096;2023-05-10T07:05:59;9.38;;;3.75;;
76900;SDS011;65859;43.020;25.096;2023-05-10T07:08:29;10.48;;;3.72;;
76900;SDS011;65859;43.020;25.096;2023-05-10T07:11:03;3.60;;;3.17;;
76900;SDS011;65859;43.020;25.096;2023-05-10T07:13:33;5.55;;;3.30;;
76900;SDS011;65859;43.020;25.096;2023-05-10T07:16:01;5.22;;;3.22;;
76900;SDS011;65859;43.020;25.096;2023-05-10T07:18:28;4.45;;;2.95;;
76900;SDS011;65859;43.020;25.096;2023-05-10T07:20:54;4.88;;;3.00;;
76900;SDS011;65859;43.020;25.096;2023-05-10T07:23:21;6.00;;;3.10;;
76900;SDS011;65859;43.020;25.096;2023-05-10T07:25:48;5.22;;;2.95;;
76900;SDS011;65859;43.020;25.096;2023-05-10T07:28:17;6.43;;;3.10;;
76900;SDS011;65859;43.020;25.096;2023-05-10T07:30:43;7.18;;;2.90;;
76900;SDS011;65859;43.020;25.096;2023-05-10T07:33:10;8.13;;;3.00;;
76900;SDS011;65859;43.020;25.096;2023-05-10T07:35:37;5.03;;;2.67;;
76900;SDS011;65859;43.020;25.096;2023-05-10T07:38:04;2.53;;;2.33;;
76900;SDS011;65859;43.020;25.096;2023-05-10T07:40:30;3.95;;;2.75;;
76900;SDS011;65859;43.020;25.096;2023-05-10T07:42:57;3.70;;;2.88;;
76900;SDS011;65859;43.020;25.096;2023-05-10T07:45:26;5.95;;;2.72;;
76900;SDS011;65859;43.020;25.096;2023-05-10T07:47:53;4.10;;;2.92;;
76900;SDS011;65859;43.020;25.096;2023-05-10T07:50:19;4.78;;;2.80;;
76900;SDS011;65859;43.020;25.096;2023-05-10T07:52:46;4.22;;;2.53;;
76900;SDS011;65859;43.020;25.096;2023-05-10T07:55:13;6.90;;;2.38;;
76900;SDS011;65859;43.020;25.096;2023-05-10T07:57:39;4.30;;;2.33;;
76900;SDS011;65859;43.020;25.096;2023-05-10T08:00:07;6.15;;;2.60;;
76900;SDS011;65859;43.020;25.096;2023-05-10T08:02:34;7.03;;;2.88;;
76900;SDS011;65859;43.020;25.096;2023-05-10T08:05:01;4.93;;;2.72;;
76900;SDS011;65859;43.020;25.096;2023-05-10T08:07:27;6.80;;;1.83;;
76900;SDS011;65859;43.020;25.096;2023-05-10T08:09:54;4.97;;;2.50;;
76900;SDS011;65859;43.020;25.096;2023-05-10T08:12:21;5.18;;;2.50;;
76900;SDS011;65859;43.020;25.096;2023-05-10T08:14:47;5.45;;;2.35;;
76900;SDS011;65859;43.020;25.096;2023-05-10T08:17:14;4.05;;;2.78;;
76900;SDS011;65859;43.020;25.096;2023-05-10T08:19:41;3.97;;;2.75;;
76900;SDS011;65859;43.020;25.096;2023-05-10T08:22:07;3.42;;;2.50;;
76900;SDS011;65859;43.020;25.096;2023-05-10T08:24:33;5.05;;;2.45;;
76900;SDS011;65859;43.020;25.096;2023-05-10T08:27:04;5.20;;;2.47;;
76900;SDS011;65859;43.020;25.096;2023-05-10T08:29:30;3.70;;;2.53;;
76900;SDS011;65859;43.020;25.096;2023-05-10T08:31:56;5.88;;;2.72;;
76900;SDS011;65859;43.020;25.096;2023-05-10T08:34:23;5.80;;;3.40;;
76900;SDS011;65859;43.020;25.096;2023-05-10T08:36:50;4.90;;;2.20;;
76900;SDS011;65859;43.020;25.096;2023-05-10T08:39:16;3.28;;;2.60;;
76900;SDS011;65859;43.020;25.096;2023-05-10T08:41:43;4.88;;;2.80;;
76900;SDS011;65859;43.020;25.096;2023-05-10T08:44:11;4.20;;;2.40;;
76900;SDS011;65859;43.020;25.096;2023-05-10T08:46:39;4.05;;;2.38;;
76900;SDS011;65859;43.020;25.096;2023-05-10T08:49:13;5.70;;;2.33;;
76900;SDS011;65859;43.020;25.096;2023-05-10T08:51:43;3.97;;;2.38;;
76900;SDS011;65859;43.020;25.096;2023-05-10T08:54:14;5.43;;;2.10;;
76900;SDS011;65859;43.020;25.096;2023-05-10T08:56:41;6.88;;;2.50;;
76900;SDS011;65859;43.020;25.096;2023-05-10T08:59:07;2.67;;;1.85;;
76900;SDS011;65859;43.020;25.096;2023-05-10T09:01:34;3.25;;;2.30;;
76900;SDS011;65859;43.020;25.096;2023-05-10T09:04:01;4.00;;;2.20;;
76900;SDS011;65859;43.020;25.096;2023-05-10T09:06:29;5.43;;;2.20;;
76900;SDS011;65859;43.020;25.096;2023-05-10T09:08:57;4.15;;;2.20;;
76900;SDS011;65859;43.020;25.096;2023-05-10T09:11:25;2.95;;;1.92;;
76900;SDS011;65859;43.020;25.096;2023-05-10T09:13:54;3.45;;;2.13;;
76900;SDS011;65859;43.020;25.096;2023-05-10T09:16:21;3.75;;;2.80;;
76900;SDS011;65859;43.020;25.096;2023-05-10T09:18:49;6.47;;;2.20;;
76900;SDS011;65859;43.020;25.096;2023-05-10T09:21:16;2.78;;;1.98;;
76900;SDS011;65859;43.020;25.096;2023-05-10T09:23:44;3.15;;;2.40;;
76900;SDS011;65859;43.020;25.096;2023-05-10T09:26:11;4.90;;;2.35;;
76900;SDS011;65859;43.020;25.096;2023-05-10T09:28:54;2.67;;;2.22;;
76900;SDS011;65859;43.020;25.096;2023-05-10T09:31:21;4.55;;;2.25;;
76900;SDS011;65859;43.020;25.096;2023-05-10T09:33:50;3.20;;;2.10;;
76900;SDS011;65859;43.020;25.096;2023-05-10T09:36:16;5.22;;;2.20;;
76900;SDS011;65859;43.020;25.096;2023-05-10T09:41:19;3.50;;;2.30;;
76900;SDS011;65859;43.020;25.096;2023-05-10T09:43:47;3.13;;;2.50;;
76900;SDS011;65859;43.020;25.096;2023-05-10T09:46:15;2.88;;;2.25;;
76900;SDS011;65859;43.020;25.096;2023-05-10T09:48:42;6.68;;;2.40;;
76900;SDS011;65859;43.020;25.096;2023-05-10T09:51:19;6.20;;;2.50;;
76900;SDS011;65859;43.020;25.096;2023-05-10T09:54:08;4.80;;;2.40;;
76900;SDS011;65859;43.020;25.096;2023-05-10T09:56:36;3.60;;;2.50;;
76900;SDS011;65859;43.020;25.096;2023-05-10T09:59:05;3.88;;;2.38;;
76900;SDS011;65859;43.020;25.096;2023-05-10T10:01:33;13.02;;;7.78;;
76900;SDS011;65859;43.020;25.096;2023-05-10T10:04:07;2.60;;;2.30;;
76900;SDS011;65859;43.020;25.096;2023-05-10T10:06:35;5.38;;;2.33;;
76900;SDS011;65859;43.020;25.096;2023-05-10T10:09:02;2.50;;;2.30;;
76900;SDS011;65859;43.020;25.096;2023-05-10T10:11:30;4.25;;;2.38;;
76900;SDS011;65859;43.020;25.096;2023-05-10T10:13:56;2.42;;;2.22;;
76900;SDS011;65859;43.020;25.096;2023-05-10T10:16:23;3.90;;;2.08;;
76900;SDS011;65859;43.020;25.096;2023-05-10T10:18:51;4.40;;;2.00;;
76900;SDS011;65859;43.020;25.096;2023-05-10T10:21:18;4.38;;;1.95;;
76900;SDS011;65859;43.020;25.096;2023-05-10T10:23:45;4.78;;;3.83;;
76900;SDS011;65859;43.020;25.096;2023-05-10T10:26:13;5.78;;;2.60;;
76900;SDS011;65859;43.020;25.096;2023-05-10T10:28:48;6.07;;;1.90;;
76900;SDS011;65859;43.020;25.096;2023-05-10T10:34:28;3.05;;;2.20;;
76900;SDS011;65859;43.020;25.096;2023-05-10T10:36:56;4.43;;;2.00;;
76900;SDS011;65859;43.020;25.096;2023-05-10T10:39:26;2.72;;;2.00;;
76900;SDS011;65859;43.020;25.096;2023-05-10T10:41:55;3.33;;;2.65;;
76900;SDS011;65859;43.020;25.096;2023-05-10T10:57:42;7.07;;;2.40;;
76900;SDS011;65859;43.020;25.096;2023-05-10T11:00:29;3.65;;;2.28;;
76900;SDS011;65859;43.020;25.096;2023-05-10T11:03:03;3.20;;;2.40;;
76900;SDS011;65859;43.020;25.096;2023-05-10T11:05:35;3.33;;;2.28;;
76900;SDS011;65859;43.020;25.096;2023-05-10T11:08:13;2.30;;;2.10;;
76900;SDS011;65859;43.020;25.096;2023-05-10T11:10:53;4.25;;;2.20;;
76900;SDS011;65859;43.020;25.096;2023-05-10T11:13:42;4.80;;;2.10;;
76900;SDS011;65859;43.020;25.096;2023-05-10T11:16:11;2.55;;;2.10;;
76900;SDS011;65859;43.020;25.096;2023-05-10T11:21:21;2.35;;;2.00;;
76900;SDS011;65859;43.020;25.096;2023-05-10T11:24:12;2.15;;;1.95;;
76900;SDS011;65859;43.020;25.096;2023-05-10T11:26:44;2.47;;;2.00;;
76900;SDS011;65859;43.020;25.096;2023-05-10T11:29:12;3.85;;;2.10;;
76900;SDS011;65859;43.020;25.096;2023-05-10T11:31:45;1.98;;;1.85;;
76900;SDS011;65859;43.020;25.096;2023-05-10T11:34:31;2.72;;;2.00;;
76900;SDS011;65859;43.020;25.096;2023-05-10T11:37:00;3.42;;;2.20;;
76900;SDS011;65859;43.020;25.096;2023-05-10T11:39:27;2.47;;;1.88;;
76900;SDS011;65859;43.020;25.096;2023-05-10T11:41:55;3.05;;;2.20;;
76900;SDS011;65859;43.020;25.096;2023-05-10T11:44:22;2.33;;;2.13;;
76900;SDS011;65859;43.020;25.096;2023-05-10T11:46:53;2.30;;;2.10;;
76900;SDS011;65859;43.020;25.096;2023-05-10T11:49:23;2.13;;;1.80;;
76900;SDS011;65859;43.020;25.096;2023-05-10T11:51:51;2.60;;;2.15;;
76900;SDS011;65859;43.020;25.096;2023-05-10T11:54:17;3.08;;;2.00;;
76900;SDS011;65859;43.020;25.096;2023-05-10T11:56:44;5.85;;;2.22;;
76900;SDS011;65859;43.020;25.096;2023-05-10T11:59:10;3.15;;;2.13;;
76900;SDS011;65859;43.020;25.096;2023-05-10T12:01:40;2.38;;;2.03;;
76900;SDS011;65859;43.020;25.096;2023-05-10T12:04:06;5.10;;;2.50;;
76900;SDS011;65859;43.020;25.096;2023-05-10T12:06:35;3.05;;;1.80;;
76900;SDS011;65859;43.020;25.096;2023-05-10T12:09:06;3.53;;;2.20;;
76900;SDS011;65859;43.020;25.096;2023-05-10T12:11:35;2.88;;;2.33;;
76900;SDS011;65859;43.020;25.096;2023-05-10T12:14:04;4.00;;;2.25;;
76900;SDS011;65859;43.020;25.096;2023-05-10T12:16:31;2.75;;;1.90;;
76900;SDS011;65859;43.020;25.096;2023-05-10T12:18:58;3.03;;;2.38;;
76900;SDS011;65859;43.020;25.096;2023-05-10T12:21:26;8.57;;;2.20;;
76900;SDS011;65859;43.020;25.096;2023-05-10T12:23:54;3.00;;;1.80;;
76900;SDS011;65859;43.020;25.096;2023-05-10T12:26:25;6.03;;;2.47;;
76900;SDS011;65859;43.020;25.096;2023-05-10T12:29:11;3.45;;;2.35;;
76900;SDS011;65859;43.020;25.096;2023-05-10T12:31:51;3.15;;;2.00;;
76900;SDS011;65859;43.020;25.096;2023-05-10T12:36:54;2.17;;;1.80;;
76900;SDS011;65859;43.020;25.096;2023-05-10T12:39:20;2.15;;;1.75;;
76900;SDS011;65859;43.020;25.096;2023-05-10T12:41:47;4.07;;;2.10;;
76900;SDS011;65859;43.020;25.096;2023-05-10T12:44:14;4.13;;;2.42;;
76900;SDS011;65859;43.020;25.096;2023-05-10T12:46:40;2.28;;;2.08;;
76900;SDS011;65859;43.020;25.096;2023-05-10T12:49:07;3.90;;;1.90;;
76900;SDS011;65859;43.020;25.096;2023-05-10T12:51:33;4.88;;;1.90;;
76900;SDS011;65859;43.020;25.096;2023-05-10T12:53:59;2.65;;;2.03;;
76900;SDS011;65859;43.020;25.096;2023-05-10T12:56:27;4.07;;;2.25;;
76900;SDS011;65859;43.020;25.096;2023-05-10T12:58:53;2.80;;;2.28;;
76900;SDS011;65859;43.020;25.096;2023-05-10T13:01:19;5.32;;;2.13;;
76900;SDS011;65859;43.020;25.096;2023-05-10T13:03:46;7.18;;;2.25;;
76900;SDS011;65859;43.020;25.096;2023-05-10T13:06:16;3.10;;;2.30;;
76900;SDS011;65859;43.020;25.096;2023-05-10T13:08:43;3.58;;;2.10;;
76900;SDS011;65859;43.020;25.096;2023-05-10T13:11:09;3.55;;;2.33;;
76900;SDS011;65859;43.020;25.096;2023-05-10T13:13:35;2.25;;;2.03;;
76900;SDS011;65859;43.020;25.096;2023-05-10T13:16:03;6.97;;;2.53;;
76900;SDS011;65859;43.020;25.096;2023-05-10T13:18:30;3.10;;;2.20;;
76900;SDS011;65859;43.020;25.096;2023-05-10T13:20:56;3.08;;;2.10;;
76900;SDS011;65859;43.020;25.096;2023-05-10T13:23:22;3.20;;;2.10;;
76900;SDS011;65859;43.020;25.096;2023-05-10T13:25:49;5.22;;;2.25;;
76900;SDS011;65859;43.020;25.096;2023-05-10T13:28:15;5.07;;;2.30;;
76900;SDS011;65859;43.020;25.096;2023-05-10T13:30:41;2.85;;;1.75;;
76900;SDS011;65859;43.020;25.096;2023-05-10T13:33:08;2.63;;;2.25;;
76900;SDS011;65859;43.020;25.096;2023-05-10T13:35:35;3.78;;;1.80;;
76900;SDS011;65859;43.020;25.096;2023-05-10T13:38:02;3.38;;;2.33;;
76900;SDS011;65859;43.020;25.096;2023-05-10T13:40:28;2.25;;;1.83;;
76900;SDS011;65859;43.020;25.096;2023-05-10T13:42:55;2.50;;;2.10;;
76900;SDS011;65859;43.020;25.096;2023-05-10T13:45:21;2.53;;;2.00;;
76900;SDS011;65859;43.020;25.096;2023-05-10T13:47:48;5.45;;;2.92;;
76900;SDS011;65859;43.020;25.096;2023-05-10T13:50:14;4.90;;;2.38;;
76900;SDS011;65859;43.020;25.096;2023-05-10T13:52:41;7.63;;;2.20;;
76900;SDS011;65859;43.020;25.096;2023-05-10T13:55:07;5.05;;;2.05;;
76900;SDS011;65859;43.020;25.096;2023-05-10T13:57:33;2.13;;;1.95;;
76900;SDS011;65859;43.020;25.096;2023-05-10T14:00:01;3.05;;;1.92;;
76900;SDS011;65859;43.020;25.096;2023-05-10T14:02:27;5.32;;;1.83;;
76900;SDS011;65859;43.020;25.096;2023-05-10T14:04:54;4.18;;;2.15;;
76900;SDS011;65859;43.020;25.096;2023-05-10T14:07:20;4.22;;;1.92;;
76900;SDS011;65859;43.020;25.096;2023-05-10T14:09:48;3.20;;;2.22;;
76900;SDS011;65859;43.020;25.096;2023-05-10T14:12:14;2.20;;;1.80;;
76900;SDS011;65859;43.020;25.096;2023-05-10T14:14:41;3.40;;;2.05;;
76900;SDS011;65859;43.020;25.096;2023-05-10T14:17:10;3.95;;;2.00;;
76900;SDS011;65859;43.020;25.096;2023-05-10T14:19:36;3.17;;;2.10;;
76900;SDS011;65859;43.020;25.096;2023-05-10T14:22:03;2.38;;;2.05;;
76900;SDS011;65859;43.020;25.096;2023-05-10T14:24:30;3.50;;;2.08;;
76900;SDS011;65859;43.020;25.096;2023-05-10T14:26:59;4.05;;;2.10;;
76900;SDS011;65859;43.020;25.096;2023-05-10T14:29:25;2.00;;;1.70;;
76900;SDS011;65859;43.020;25.096;2023-05-10T14:31:52;2.63;;;2.08;;
76900;SDS011;65859;43.020;25.096;2023-05-10T14:34:18;2.08;;;1.85;;
76900;SDS011;65859;43.020;25.096;2023-05-10T14:36:45;2.03;;;1.83;;
76900;SDS011;65859;43.020;25.096;2023-05-10T14:39:11;3.72;;;1.88;;
76900;SDS011;65859;43.020;25.096;2023-05-10T14:41:39;4.57;;;1.83;;
76900;SDS011;65859;43.020;25.096;2023-05-10T14:44:08;2.25;;;1.75;;
76900;SDS011;65859;43.020;25.096;2023-05-10T14:46:35;1.80;;;1.70;;
76900;SDS011;65859;43.020;25.096;2023-05-10T14:49:01;1.90;;;1.67;;
76900;SDS011;65859;43.020;25.096;2023-05-10T14:51:28;3.95;;;1.90;;
76900;SDS011;65859;43.020;25.096;2023-05-10T14:53:54;5.60;;;2.22;;
76900;SDS011;65859;43.020;25.096;2023-05-10T14:56:20;3.83;;;2.60;;
76900;SDS011;65859;43.020;25.096;2023-05-10T14:58:47;3.80;;;2.40;;
76900;SDS011;65859;43.020;25.096;2023-05-10T15:01:14;4.25;;;2.30;;
76900;SDS011;65859;43.020;25.096;2023-05-10T15:03:41;2.95;;;1.65;;
76900;SDS011;65859;43.020;25.096;2023-05-10T15:06:07;3.70;;;2.45;;
76900;SDS011;65859;43.020;25.096;2023-05-10T15:08:34;3.72;;;2.30;;
76900;SDS011;65859;43.020;25.096;2023-05-10T15:11:00;4.68;;;1.90;;
76900;SDS011;65859;43.020;25.096;2023-05-10T15:13:29;5.47;;;1.95;;
76900;SDS011;65859;43.020;25.096;2023-05-10T15:15:55;4.28;;;2.30;;